sensor_id;sensor_type;location;lat;lon;timestamp;temperature;humidity
56725;DHT22;42608;52.776;6.968;2022-07-03T00:01:00;19.50;99.90
56725;DHT22;42608;52.776;6.968;2022-07-03T00:03:26;19.50;99.90
56725;DHT22;42608;52.776;6.968;2022-07-03T00:05:51;19.50;99.90
56725;DHT22;42608;52.776;6.968;2022-07-03T00:08:17;19.40;99.90
56725;DHT22;42608;52.776;6.968;2022-07-03T00:10:43;19.40;99.90
56725;DHT22;42608;52.776;6.968;2022-07-03T00:13:08;19.40;99.90
56725;DHT22;42608;52.776;6.968;2022-07-03T00:15:34;19.40;99.90
56725;DHT22;42608;52.776;6.968;2022-07-03T00:17:59;19.40;99.90
56725;DHT22;42608;52.776;6.968;2022-07-03T00:20:25;19.30;99.90
56725;DHT22;42608;52.776;6.968;2022-07-03T00:22:52;19.30;99.90
56725;DHT22;42608;52.776;6.968;2022-07-03T00:25:18;19.30;99.90
56725;DHT22;42608;52.776;6.968;2022-07-03T00:27:44;19.20;99.90
56725;DHT22;42608;52.776;6.968;2022-07-03T00:30:10;19.10;99.90
56725;DHT22;42608;52.776;6.968;2022-07-03T00:32:39;19.10;99.90
56725;DHT22;42608;52.776;6.968;2022-07-03T00:35:07;19.10;99.90
56725;DHT22;42608;52.776;6.968;2022-07-03T00:37:33;19.10;99.90
56725;DHT22;42608;52.776;6.968;2022-07-03T00:39:58;19.00;99.90
56725;DHT22;42608;52.776;6.968;2022-07-03T00:42:25;19.00;99.90
56725;DHT22;42608;52.776;6.968;2022-07-03T00:44:53;19.00;99.90
56725;DHT22;42608;52.776;6.968;2022-07-03T00:47:20;18.90;99.90
56725;DHT22;42608;52.776;6.968;2022-07-03T00:49:50;18.90;99.90
56725;DHT22;42608;52.776;6.968;2022-07-03T00:52:16;18.90;99.90
56725;DHT22;42608;52.776;6.968;2022-07-03T00:54:43;18.90;99.90
56725;DHT22;42608;52.776;6.968;2022-07-03T00:57:11;18.90;99.90
56725;DHT22;42608;52.776;6.968;2022-07-03T00:59:38;18.90;99.90
56725;DHT22;42608;52.776;6.968;2022-07-03T01:02:05;18.90;99.90
56725;DHT22;42608;52.776;6.968;2022-07-03T01:04:40;18.90;99.90
56725;DHT22;42608;52.776;6.968;2022-07-03T01:07:18;18.90;99.90
56725;DHT22;42608;52.776;6.968;2022-07-03T01:12:23;18.90;99.90
56725;DHT22;42608;52.776;6.968;2022-07-03T01:17:37;18.80;99.90
56725;DHT22;42608;52.776;6.968;2022-07-03T01:20:04;18.80;99.90
56725;DHT22;42608;52.776;6.968;2022-07-03T01:22:31;18.80;99.90
56725;DHT22;42608;52.776;6.968;2022-07-03T01:25:12;18.80;99.90
56725;DHT22;42608;52.776;6.968;2022-07-03T01:27:48;18.70;99.90
56725;DHT22;42608;52.776;6.968;2022-07-03T01:30:18;18.70;99.90
56725;DHT22;42608;52.776;6.968;2022-07-03T01:32:45;18.60;99.90
56725;DHT22;42608;52.776;6.968;2022-07-03T01:35:12;18.60;99.90
56725;DHT22;42608;52.776;6.968;2022-07-03T01:37:38;18.60;99.90
56725;DHT22;42608;52.776;6.968;2022-07-03T01:40:04;18.50;99.90
56725;DHT22;42608;52.776;6.968;2022-07-03T01:42:32;18.50;99.90
56725;DHT22;42608;52.776;6.968;2022-07-03T01:44:58;18.50;99.90
56725;DHT22;42608;52.776;6.968;2022-07-03T01:47:24;18.50;99.90
56725;DHT22;42608;52.776;6.968;2022-07-03T01:49:50;18.50;99.90
56725;DHT22;42608;52.776;6.968;2022-07-03T01:52:16;18.40;99.90
56725;DHT22;42608;52.776;6.968;2022-07-03T01:54:44;18.40;99.90
56725;DHT22;42608;52.776;6.968;2022-07-03T01:57:10;18.40;99.90
56725;DHT22;42608;52.776;6.968;2022-07-03T01:59:35;18.40;99.90
56725;DHT22;42608;52.776;6.968;2022-07-03T02:02:09;18.40;99.90
56725;DHT22;42608;52.776;6.968;2022-07-03T02:07:19;18.30;99.90
56725;DHT22;42608;52.776;6.968;2022-07-03T02:09:49;18.30;99.90
56725;DHT22;42608;52.776;6.968;2022-07-03T02:12:16;18.30;99.90
56725;DHT22;42608;52.776;6.968;2022-07-03T02:14:45;18.20;99.90
56725;DHT22;42608;52.776;6.968;2022-07-03T02:19:43;18.20;99.90
56725;DHT22;42608;52.776;6.968;2022-07-03T02:22:12;18.10;99.90
56725;DHT22;42608;52.776;6.968;2022-07-03T02:24:42;18.10;99.90
56725;DHT22;42608;52.776;6.968;2022-07-03T02:27:21;18.00;99.90
56725;DHT22;42608;52.776;6.968;2022-07-03T02:29:49;18.00;99.90
56725;DHT22;42608;52.776;6.968;2022-07-03T02:32:17;18.00;99.90
56725;DHT22;42608;52.776;6.968;2022-07-03T02:34:45;17.90;99.90
56725;DHT22;42608;52.776;6.968;2022-07-03T02:37:15;17.90;99.90
56725;DHT22;42608;52.776;6.968;2022-07-03T02:39:43;17.80;99.90
56725;DHT22;42608;52.776;6.968;2022-07-03T02:44:54;17.80;99.90
56725;DHT22;42608;52.776;6.968;2022-07-03T02:52:33;17.80;99.90
56725;DHT22;42608;52.776;6.968;2022-07-03T02:55:03;17.80;99.90
56725;DHT22;42608;52.776;6.968;2022-07-03T02:57:35;17.70;99.90
56725;DHT22;42608;52.776;6.968;2022-07-03T03:00:03;17.70;99.90
56725;DHT22;42608;52.776;6.968;2022-07-03T03:07:59;17.60;99.90
56725;DHT22;42608;52.776;6.968;2022-07-03T03:10:27;17.50;99.90
56725;DHT22;42608;52.776;6.968;2022-07-03T03:12:58;17.40;99.90
56725;DHT22;42608;52.776;6.968;2022-07-03T03:15:26;17.40;99.90
56725;DHT22;42608;52.776;6.968;2022-07-03T03:17:54;17.30;99.90
56725;DHT22;42608;52.776;6.968;2022-07-03T03:20:22;17.30;99.90
56725;DHT22;42608;52.776;6.968;2022-07-03T03:22:56;17.30;99.90
56725;DHT22;42608;52.776;6.968;2022-07-03T03:25:24;17.30;99.90
56725;DHT22;42608;52.776;6.968;2022-07-03T03:27:50;17.30;99.90
56725;DHT22;42608;52.776;6.968;2022-07-03T03:30:15;17.30;99.90
56725;DHT22;42608;52.776;6.968;2022-07-03T03:32:41;17.20;99.90
56725;DHT22;42608;52.776;6.968;2022-07-03T03:35:08;17.20;99.90
56725;DHT22;42608;52.776;6.968;2022-07-03T03:37:33;17.10;99.90
56725;DHT22;42608;52.776;6.968;2022-07-03T03:39:59;17.10;99.90
56725;DHT22;42608;52.776;6.968;2022-07-03T03:42:27;17.10;99.90
56725;DHT22;42608;52.776;6.968;2022-07-03T03:44:52;17.10;99.90
56725;DHT22;42608;52.776;6.968;2022-07-03T03:47:18;17.10;99.90
56725;DHT22;42608;52.776;6.968;2022-07-03T03:49:44;17.10;99.90
56725;DHT22;42608;52.776;6.968;2022-07-03T03:52:09;17.00;99.90
56725;DHT22;42608;52.776;6.968;2022-07-03T03:54:35;17.00;99.90
56725;DHT22;42608;52.776;6.968;2022-07-03T03:57:20;17.00;99.90
56725;DHT22;42608;52.776;6.968;2022-07-03T03:59:45;17.00;99.90
56725;DHT22;42608;52.776;6.968;2022-07-03T04:02:11;16.90;99.90
56725;DHT22;42608;52.776;6.968;2022-07-03T04:04:37;17.00;99.90
56725;DHT22;42608;52.776;6.968;2022-07-03T04:07:03;17.00;99.90
56725;DHT22;42608;52.776;6.968;2022-07-03T04:09:29;17.00;99.90
56725;DHT22;42608;52.776;6.968;2022-07-03T04:11:54;17.00;99.90
56725;DHT22;42608;52.776;6.968;2022-07-03T04:14:20;17.00;99.90
56725;DHT22;42608;52.776;6.968;2022-07-03T04:16:45;17.10;99.90
56725;DHT22;42608;52.776;6.968;2022-07-03T04:19:11;17.10;99.90
56725;DHT22;42608;52.776;6.968;2022-07-03T04:21:36;17.10;99.90
56725;DHT22;42608;52.776;6.968;2022-07-03T04:24:02;17.10;99.90
56725;DHT22;42608;52.776;6.968;2022-07-03T04:26:28;17.20;99.90
56725;DHT22;42608;52.776;6.968;2022-07-03T04:28:53;17.20;99.90
56725;DHT22;42608;52.776;6.968;2022-07-03T04:31:19;17.30;99.90
56725;DHT22;42608;52.776;6.968;2022-07-03T04:33:44;17.30;99.90
56725;DHT22;42608;52.776;6.968;2022-07-03T04:36:10;17.30;99.90
56725;DHT22;42608;52.776;6.968;2022-07-03T04:38:35;17.40;99.90
56725;DHT22;42608;52.776;6.968;2022-07-03T04:41:01;17.40;99.90
56725;DHT22;42608;52.776;6.968;2022-07-03T04:43:26;17.50;99.90
56725;DHT22;42608;52.776;6.968;2022-07-03T04:45:52;17.50;99.90
56725;DHT22;42608;52.776;6.968;2022-07-03T04:48:18;17.60;99.90
56725;DHT22;42608;52.776;6.968;2022-07-03T04:50:43;17.60;99.90
56725;DHT22;42608;52.776;6.968;2022-07-03T04:53:09;17.70;99.90
56725;DHT22;42608;52.776;6.968;2022-07-03T04:55:34;17.70;99.90
56725;DHT22;42608;52.776;6.968;2022-07-03T04:58:00;17.70;99.90
56725;DHT22;42608;52.776;6.968;2022-07-03T05:00:25;17.80;99.90
56725;DHT22;42608;52.776;6.968;2022-07-03T05:02:51;17.80;99.90
56725;DHT22;42608;52.776;6.968;2022-07-03T05:05:16;17.80;99.90
56725;DHT22;42608;52.776;6.968;2022-07-03T05:07:42;17.80;99.90
56725;DHT22;42608;52.776;6.968;2022-07-03T05:10:07;17.80;99.90
56725;DHT22;42608;52.776;6.968;2022-07-03T05:12:33;17.80;99.90
56725;DHT22;42608;52.776;6.968;2022-07-03T05:14:59;17.80;99.90
56725;DHT22;42608;52.776;6.968;2022-07-03T05:17:24;17.80;99.90
56725;DHT22;42608;52.776;6.968;2022-07-03T05:19:50;17.80;99.90
56725;DHT22;42608;52.776;6.968;2022-07-03T05:22:35;17.80;99.90
56725;DHT22;42608;52.776;6.968;2022-07-03T05:25:01;17.80;99.90
56725;DHT22;42608;52.776;6.968;2022-07-03T05:27:26;17.70;99.90
56725;DHT22;42608;52.776;6.968;2022-07-03T05:29:52;17.70;99.90
56725;DHT22;42608;52.776;6.968;2022-07-03T05:32:17;17.70;99.90
56725;DHT22;42608;52.776;6.968;2022-07-03T05:34:43;17.70;99.90
56725;DHT22;42608;52.776;6.968;2022-07-03T05:37:08;17.60;99.90
56725;DHT22;42608;52.776;6.968;2022-07-03T05:39:34;17.60;99.90
56725;DHT22;42608;52.776;6.968;2022-07-03T05:42:00;17.70;99.90
56725;DHT22;42608;52.776;6.968;2022-07-03T05:44:26;17.70;99.90
56725;DHT22;42608;52.776;6.968;2022-07-03T05:46:51;17.70;99.90
56725;DHT22;42608;52.776;6.968;2022-07-03T05:49:17;17.70;99.90
56725;DHT22;42608;52.776;6.968;2022-07-03T05:51:42;17.80;99.90
56725;DHT22;42608;52.776;6.968;2022-07-03T05:54:08;17.80;99.90
56725;DHT22;42608;52.776;6.968;2022-07-03T05:56:34;17.80;99.90
56725;DHT22;42608;52.776;6.968;2022-07-03T05:58:59;17.80;99.90
56725;DHT22;42608;52.776;6.968;2022-07-03T06:01:25;17.90;99.90
56725;DHT22;42608;52.776;6.968;2022-07-03T06:03:50;17.90;99.90
56725;DHT22;42608;52.776;6.968;2022-07-03T06:06:16;17.90;99.90
56725;DHT22;42608;52.776;6.968;2022-07-03T06:08:41;17.90;99.90
56725;DHT22;42608;52.776;6.968;2022-07-03T06:11:07;17.90;99.90
56725;DHT22;42608;52.776;6.968;2022-07-03T06:13:33;18.00;99.90
56725;DHT22;42608;52.776;6.968;2022-07-03T06:15:58;18.10;99.90
56725;DHT22;42608;52.776;6.968;2022-07-03T06:18:24;18.10;99.90
56725;DHT22;42608;52.776;6.968;2022-07-03T06:20:49;18.20;99.90
56725;DHT22;42608;52.776;6.968;2022-07-03T06:23:15;18.30;99.90
56725;DHT22;42608;52.776;6.968;2022-07-03T06:25:40;18.40;99.90
56725;DHT22;42608;52.776;6.968;2022-07-03T06:28:06;18.50;99.90
56725;DHT22;42608;52.776;6.968;2022-07-03T06:30:31;18.60;99.90
56725;DHT22;42608;52.776;6.968;2022-07-03T06:32:57;18.60;99.90
56725;DHT22;42608;52.776;6.968;2022-07-03T06:35:22;18.80;99.90
56725;DHT22;42608;52.776;6.968;2022-07-03T06:37:48;18.80;99.90
56725;DHT22;42608;52.776;6.968;2022-07-03T06:40:15;18.90;99.90
56725;DHT22;42608;52.776;6.968;2022-07-03T06:42:40;18.90;99.90
56725;DHT22;42608;52.776;6.968;2022-07-03T06:45:06;19.00;99.90
56725;DHT22;42608;52.776;6.968;2022-07-03T06:47:36;19.00;99.90
56725;DHT22;42608;52.776;6.968;2022-07-03T06:50:01;19.10;99.90
56725;DHT22;42608;52.776;6.968;2022-07-03T06:52:27;19.20;99.90
56725;DHT22;42608;52.776;6.968;2022-07-03T06:54:53;19.20;99.90
56725;DHT22;42608;52.776;6.968;2022-07-03T06:57:18;19.30;99.90
56725;DHT22;42608;52.776;6.968;2022-07-03T06:59:44;19.30;99.90
56725;DHT22;42608;52.776;6.968;2022-07-03T07:02:09;19.30;99.90
56725;DHT22;42608;52.776;6.968;2022-07-03T07:04:35;19.40;99.90
56725;DHT22;42608;52.776;6.968;2022-07-03T07:07:01;19.40;99.90
56725;DHT22;42608;52.776;6.968;2022-07-03T07:09:26;19.40;99.90
56725;DHT22;42608;52.776;6.968;2022-07-03T07:11:52;19.50;99.90
56725;DHT22;42608;52.776;6.968;2022-07-03T07:14:17;19.50;99.90
56725;DHT22;42608;52.776;6.968;2022-07-03T07:16:43;19.60;99.90
56725;DHT22;42608;52.776;6.968;2022-07-03T07:19:09;19.60;99.90
56725;DHT22;42608;52.776;6.968;2022-07-03T07:21:34;19.70;99.90
56725;DHT22;42608;52.776;6.968;2022-07-03T07:24:00;19.80;99.90
56725;DHT22;42608;52.776;6.968;2022-07-03T07:26:25;19.80;99.90
56725;DHT22;42608;52.776;6.968;2022-07-03T07:28:51;19.90;99.90
56725;DHT22;42608;52.776;6.968;2022-07-03T07:31:17;19.90;99.90
56725;DHT22;42608;52.776;6.968;2022-07-03T07:33:42;20.00;99.90
56725;DHT22;42608;52.776;6.968;2022-07-03T07:36:08;20.00;99.90
56725;DHT22;42608;52.776;6.968;2022-07-03T07:38:33;20.10;99.90
56725;DHT22;42608;52.776;6.968;2022-07-03T07:40:59;20.20;99.90
56725;DHT22;42608;52.776;6.968;2022-07-03T07:43:25;20.30;99.90
56725;DHT22;42608;52.776;6.968;2022-07-03T07:45:51;20.30;99.90
56725;DHT22;42608;52.776;6.968;2022-07-03T07:48:18;20.30;99.90
56725;DHT22;42608;52.776;6.968;2022-07-03T07:50:44;20.30;99.90
56725;DHT22;42608;52.776;6.968;2022-07-03T07:53:09;20.40;99.90
56725;DHT22;42608;52.776;6.968;2022-07-03T07:55:35;20.40;99.90
56725;DHT22;42608;52.776;6.968;2022-07-03T07:58:00;20.50;99.90
56725;DHT22;42608;52.776;6.968;2022-07-03T08:00:26;20.50;99.90
56725;DHT22;42608;52.776;6.968;2022-07-03T08:02:51;20.50;99.90
56725;DHT22;42608;52.776;6.968;2022-07-03T08:05:36;20.50;99.90
56725;DHT22;42608;52.776;6.968;2022-07-03T08:08:03;20.50;99.90
56725;DHT22;42608;52.776;6.968;2022-07-03T08:10:29;20.50;99.90
56725;DHT22;42608;52.776;6.968;2022-07-03T08:12:54;20.50;99.90
56725;DHT22;42608;52.776;6.968;2022-07-03T08:15:20;20.40;99.90
56725;DHT22;42608;52.776;6.968;2022-07-03T08:17:45;20.40;99.90
56725;DHT22;42608;52.776;6.968;2022-07-03T08:20:11;20.40;99.90
56725;DHT22;42608;52.776;6.968;2022-07-03T08:22:36;20.40;99.90
56725;DHT22;42608;52.776;6.968;2022-07-03T08:25:02;20.50;99.90
56725;DHT22;42608;52.776;6.968;2022-07-03T08:27:28;20.50;99.90
56725;DHT22;42608;52.776;6.968;2022-07-03T08:29:53;20.50;99.90
56725;DHT22;42608;52.776;6.968;2022-07-03T08:32:19;20.60;99.90
56725;DHT22;42608;52.776;6.968;2022-07-03T08:34:44;20.60;99.90
56725;DHT22;42608;52.776;6.968;2022-07-03T08:37:10;20.60;99.90
56725;DHT22;42608;52.776;6.968;2022-07-03T08:39:35;20.70;99.90
56725;DHT22;42608;52.776;6.968;2022-07-03T08:42:01;20.70;99.90
56725;DHT22;42608;52.776;6.968;2022-07-03T08:44:27;20.80;99.90
56725;DHT22;42608;52.776;6.968;2022-07-03T08:46:53;20.90;99.90
56725;DHT22;42608;52.776;6.968;2022-07-03T08:49:19;20.90;99.90
56725;DHT22;42608;52.776;6.968;2022-07-03T08:51:45;21.00;99.90
56725;DHT22;42608;52.776;6.968;2022-07-03T08:54:12;21.10;99.90
56725;DHT22;42608;52.776;6.968;2022-07-03T08:56:37;21.10;99.90
56725;DHT22;42608;52.776;6.968;2022-07-03T08:59:05;21.20;99.90
56725;DHT22;42608;52.776;6.968;2022-07-03T09:01:32;21.30;99.90
56725;DHT22;42608;52.776;6.968;2022-07-03T09:03:58;21.40;99.90
56725;DHT22;42608;52.776;6.968;2022-07-03T09:06:23;21.50;99.90
56725;DHT22;42608;52.776;6.968;2022-07-03T09:08:49;21.60;99.90
56725;DHT22;42608;52.776;6.968;2022-07-03T09:11:15;21.60;99.90
56725;DHT22;42608;52.776;6.968;2022-07-03T09:13:41;21.60;99.90
56725;DHT22;42608;52.776;6.968;2022-07-03T09:16:13;21.70;99.90
56725;DHT22;42608;52.776;6.968;2022-07-03T09:18:40;21.70;99.90
56725;DHT22;42608;52.776;6.968;2022-07-03T09:21:06;21.70;99.90
56725;DHT22;42608;52.776;6.968;2022-07-03T09:23:35;21.70;99.90
56725;DHT22;42608;52.776;6.968;2022-07-03T09:26:02;21.70;99.90
56725;DHT22;42608;52.776;6.968;2022-07-03T09:31:08;21.70;99.90
56725;DHT22;42608;52.776;6.968;2022-07-03T09:33:34;21.70;99.90
56725;DHT22;42608;52.776;6.968;2022-07-03T09:36:00;21.70;99.90
56725;DHT22;42608;52.776;6.968;2022-07-03T09:38:25;21.80;99.90
56725;DHT22;42608;52.776;6.968;2022-07-03T09:40:52;21.80;99.90
56725;DHT22;42608;52.776;6.968;2022-07-03T09:43:22;21.80;99.90
56725;DHT22;42608;52.776;6.968;2022-07-03T09:48:26;21.90;99.90
56725;DHT22;42608;52.776;6.968;2022-07-03T09:51:08;22.00;99.90
56725;DHT22;42608;52.776;6.968;2022-07-03T09:53:44;22.10;99.90
56725;DHT22;42608;52.776;6.968;2022-07-03T09:56:10;22.10;99.90
56725;DHT22;42608;52.776;6.968;2022-07-03T09:58:36;22.10;99.90
56725;DHT22;42608;52.776;6.968;2022-07-03T10:01:18;22.10;99.90
56725;DHT22;42608;52.776;6.968;2022-07-03T10:03:44;22.00;99.90
56725;DHT22;42608;52.776;6.968;2022-07-03T10:06:09;22.00;99.90
56725;DHT22;42608;52.776;6.968;2022-07-03T10:08:35;22.00;99.90
56725;DHT22;42608;52.776;6.968;2022-07-03T10:11:01;22.00;99.90
56725;DHT22;42608;52.776;6.968;2022-07-03T10:13:27;22.10;99.90
56725;DHT22;42608;52.776;6.968;2022-07-03T10:15:53;22.00;99.90
56725;DHT22;42608;52.776;6.968;2022-07-03T10:18:19;22.00;99.90
56725;DHT22;42608;52.776;6.968;2022-07-03T10:20:49;22.00;99.90
56725;DHT22;42608;52.776;6.968;2022-07-03T10:23:16;22.00;99.90
56725;DHT22;42608;52.776;6.968;2022-07-03T10:25:42;22.00;99.90
56725;DHT22;42608;52.776;6.968;2022-07-03T10:28:08;22.10;99.90
56725;DHT22;42608;52.776;6.968;2022-07-03T10:30:35;22.10;99.90
56725;DHT22;42608;52.776;6.968;2022-07-03T10:33:01;22.20;99.90
56725;DHT22;42608;52.776;6.968;2022-07-03T10:35:34;22.30;99.90
56725;DHT22;42608;52.776;6.968;2022-07-03T10:43:30;22.40;99.90
56725;DHT22;42608;52.776;6.968;2022-07-03T10:46:15;22.40;99.90
56725;DHT22;42608;52.776;6.968;2022-07-03T10:51:19;22.50;99.90
56725;DHT22;42608;52.776;6.968;2022-07-03T10:53:44;22.50;99.60
56725;DHT22;42608;52.776;6.968;2022-07-03T10:56:10;22.50;99.50
56725;DHT22;42608;52.776;6.968;2022-07-03T10:58:55;22.50;99.00
56725;DHT22;42608;52.776;6.968;2022-07-03T11:01:30;22.50;98.20
56725;DHT22;42608;52.776;6.968;2022-07-03T11:09:14;22.50;98.00
56725;DHT22;42608;52.776;6.968;2022-07-03T11:11:43;22.50;98.80
56725;DHT22;42608;52.776;6.968;2022-07-03T11:16:48;22.70;97.60
56725;DHT22;42608;52.776;6.968;2022-07-03T11:19:13;22.70;96.70
56725;DHT22;42608;52.776;6.968;2022-07-03T11:21:41;22.70;97.00
56725;DHT22;42608;52.776;6.968;2022-07-03T11:24:11;22.80;97.10
56725;DHT22;42608;52.776;6.968;2022-07-03T11:26:39;22.80;95.70
56725;DHT22;42608;52.776;6.968;2022-07-03T11:29:05;22.70;95.60
56725;DHT22;42608;52.776;6.968;2022-07-03T11:31:30;22.80;95.90
56725;DHT22;42608;52.776;6.968;2022-07-03T11:34:00;22.90;95.20
56725;DHT22;42608;52.776;6.968;2022-07-03T11:36:26;23.00;94.40
56725;DHT22;42608;52.776;6.968;2022-07-03T11:41:23;22.90;93.10
56725;DHT22;42608;52.776;6.968;2022-07-03T11:43:52;22.90;93.70
56725;DHT22;42608;52.776;6.968;2022-07-03T11:46:18;23.00;93.90
56725;DHT22;42608;52.776;6.968;2022-07-03T11:48:44;23.10;93.40
56725;DHT22;42608;52.776;6.968;2022-07-03T11:51:10;23.10;93.90
56725;DHT22;42608;52.776;6.968;2022-07-03T11:53:36;23.10;93.40
56725;DHT22;42608;52.776;6.968;2022-07-03T11:56:07;23.20;93.50
56725;DHT22;42608;52.776;6.968;2022-07-03T12:01:11;23.40;94.10
56725;DHT22;42608;52.776;6.968;2022-07-03T12:03:52;23.60;94.20
56725;DHT22;42608;52.776;6.968;2022-07-03T12:06:19;23.70;93.80
56725;DHT22;42608;52.776;6.968;2022-07-03T12:08:45;23.90;93.50
56725;DHT22;42608;52.776;6.968;2022-07-03T12:11:14;24.00;92.80
56725;DHT22;42608;52.776;6.968;2022-07-03T12:13:40;24.00;92.60
56725;DHT22;42608;52.776;6.968;2022-07-03T12:16:09;24.10;92.30
56725;DHT22;42608;52.776;6.968;2022-07-03T12:18:45;24.20;90.90
56725;DHT22;42608;52.776;6.968;2022-07-03T12:21:12;24.20;91.60
56725;DHT22;42608;52.776;6.968;2022-07-03T12:23:54;24.20;91.40
56725;DHT22;42608;52.776;6.968;2022-07-03T12:26:33;24.20;92.40
56725;DHT22;42608;52.776;6.968;2022-07-03T12:28:59;24.20;91.60
56725;DHT22;42608;52.776;6.968;2022-07-03T12:31:25;24.10;89.30
56725;DHT22;42608;52.776;6.968;2022-07-03T12:33:51;23.90;89.60
56725;DHT22;42608;52.776;6.968;2022-07-03T12:36:17;23.90;91.90
56725;DHT22;42608;52.776;6.968;2022-07-03T12:38:46;24.00;92.10
56725;DHT22;42608;52.776;6.968;2022-07-03T12:41:12;24.10;91.90
56725;DHT22;42608;52.776;6.968;2022-07-03T12:43:41;24.20;91.00
56725;DHT22;42608;52.776;6.968;2022-07-03T12:48:49;24.30;84.60
56725;DHT22;42608;52.776;6.968;2022-07-03T12:51:16;24.30;88.20
56725;DHT22;42608;52.776;6.968;2022-07-03T12:53:42;24.40;88.00
56725;DHT22;42608;52.776;6.968;2022-07-03T12:56:08;24.50;88.30
56725;DHT22;42608;52.776;6.968;2022-07-03T12:58:35;24.50;88.80
56725;DHT22;42608;52.776;6.968;2022-07-03T13:01:29;24.50;88.90
56725;DHT22;42608;52.776;6.968;2022-07-03T13:03:55;24.50;81.90
56725;DHT22;42608;52.776;6.968;2022-07-03T13:06:21;24.50;82.30
56725;DHT22;42608;52.776;6.968;2022-07-03T13:09:03;24.50;86.40
56725;DHT22;42608;52.776;6.968;2022-07-03T13:11:33;24.60;85.50
56725;DHT22;42608;52.776;6.968;2022-07-03T13:14:09;24.70;87.00
56725;DHT22;42608;52.776;6.968;2022-07-03T13:16:36;24.80;90.30
56725;DHT22;42608;52.776;6.968;2022-07-03T13:19:04;25.10;87.10
56725;DHT22;42608;52.776;6.968;2022-07-03T13:21:29;25.30;86.20
56725;DHT22;42608;52.776;6.968;2022-07-03T13:23:55;25.50;85.70
56725;DHT22;42608;52.776;6.968;2022-07-03T13:26:21;25.70;82.10
56725;DHT22;42608;52.776;6.968;2022-07-03T13:28:47;25.90;82.30
56725;DHT22;42608;52.776;6.968;2022-07-03T13:31:12;26.00;81.10
56725;DHT22;42608;52.776;6.968;2022-07-03T13:33:38;26.20;79.40
56725;DHT22;42608;52.776;6.968;2022-07-03T13:36:04;26.20;75.80
56725;DHT22;42608;52.776;6.968;2022-07-03T13:38:30;26.10;71.70
56725;DHT22;42608;52.776;6.968;2022-07-03T13:40:55;26.20;74.00
56725;DHT22;42608;52.776;6.968;2022-07-03T13:43:21;26.30;75.40
56725;DHT22;42608;52.776;6.968;2022-07-03T13:45:46;26.40;75.70
56725;DHT22;42608;52.776;6.968;2022-07-03T13:48:12;26.60;74.10
56725;DHT22;42608;52.776;6.968;2022-07-03T13:50:38;26.70;73.00
56725;DHT22;42608;52.776;6.968;2022-07-03T13:53:04;26.60;70.30
56725;DHT22;42608;52.776;6.968;2022-07-03T13:55:30;26.50;68.90
56725;DHT22;42608;52.776;6.968;2022-07-03T13:57:55;26.40;68.50
56725;DHT22;42608;52.776;6.968;2022-07-03T14:00:21;26.10;70.40
56725;DHT22;42608;52.776;6.968;2022-07-03T14:02:47;26.00;70.70
56725;DHT22;42608;52.776;6.968;2022-07-03T14:05:12;25.80;72.30
56725;DHT22;42608;52.776;6.968;2022-07-03T14:07:38;24.80;75.60
56725;DHT22;42608;52.776;6.968;2022-07-03T14:10:03;23.60;91.90
56725;DHT22;42608;52.776;6.968;2022-07-03T14:12:29;22.60;99.90
56725;DHT22;42608;52.776;6.968;2022-07-03T14:14:55;21.60;99.90
56725;DHT22;42608;52.776;6.968;2022-07-03T14:17:22;20.80;99.90
56725;DHT22;42608;52.776;6.968;2022-07-03T14:19:47;20.30;99.90
56725;DHT22;42608;52.776;6.968;2022-07-03T14:22:13;20.00;99.90
56725;DHT22;42608;52.776;6.968;2022-07-03T14:24:38;19.90;99.90
56725;DHT22;42608;52.776;6.968;2022-07-03T14:27:04;19.80;99.90
56725;DHT22;42608;52.776;6.968;2022-07-03T14:29:48;19.70;99.90
56725;DHT22;42608;52.776;6.968;2022-07-03T14:32:32;19.70;99.90
56725;DHT22;42608;52.776;6.968;2022-07-03T14:34:59;19.70;99.90
56725;DHT22;42608;52.776;6.968;2022-07-03T14:37:25;19.80;99.90
56725;DHT22;42608;52.776;6.968;2022-07-03T14:39:51;20.00;99.90
56725;DHT22;42608;52.776;6.968;2022-07-03T14:42:17;20.20;99.90
56725;DHT22;42608;52.776;6.968;2022-07-03T14:44:43;20.30;99.90
56725;DHT22;42608;52.776;6.968;2022-07-03T14:47:08;20.50;99.90
56725;DHT22;42608;52.776;6.968;2022-07-03T14:49:34;20.60;99.90
56725;DHT22;42608;52.776;6.968;2022-07-03T14:52:03;20.70;99.90
56725;DHT22;42608;52.776;6.968;2022-07-03T14:54:29;20.90;99.90
56725;DHT22;42608;52.776;6.968;2022-07-03T14:56:59;21.00;99.90
56725;DHT22;42608;52.776;6.968;2022-07-03T14:59:34;21.00;99.90
56725;DHT22;42608;52.776;6.968;2022-07-03T15:02:00;21.00;99.90
56725;DHT22;42608;52.776;6.968;2022-07-03T15:04:46;21.20;99.90
56725;DHT22;42608;52.776;6.968;2022-07-03T15:07:13;21.20;99.90
56725;DHT22;42608;52.776;6.968;2022-07-03T15:09:39;21.30;99.90
56725;DHT22;42608;52.776;6.968;2022-07-03T15:12:07;21.40;99.90
56725;DHT22;42608;52.776;6.968;2022-07-03T15:14:51;21.50;99.90
56725;DHT22;42608;52.776;6.968;2022-07-03T15:17:19;21.50;99.90
56725;DHT22;42608;52.776;6.968;2022-07-03T15:19:45;21.50;99.90
56725;DHT22;42608;52.776;6.968;2022-07-03T15:22:12;21.60;99.90
56725;DHT22;42608;52.776;6.968;2022-07-03T15:24:40;21.70;99.90
56725;DHT22;42608;52.776;6.968;2022-07-03T15:27:05;21.70;99.90
56725;DHT22;42608;52.776;6.968;2022-07-03T15:29:31;21.80;99.90
56725;DHT22;42608;52.776;6.968;2022-07-03T15:32:00;21.80;99.90
56725;DHT22;42608;52.776;6.968;2022-07-03T15:34:26;21.90;99.90
56725;DHT22;42608;52.776;6.968;2022-07-03T15:36:56;21.80;99.90
56725;DHT22;42608;52.776;6.968;2022-07-03T15:39:34;21.70;99.90
56725;DHT22;42608;52.776;6.968;2022-07-03T15:42:17;21.70;99.90
56725;DHT22;42608;52.776;6.968;2022-07-03T15:44:52;21.60;99.90
56725;DHT22;42608;52.776;6.968;2022-07-03T15:48:07;21.50;99.90
56725;DHT22;42608;52.776;6.968;2022-07-03T15:50:08;21.40;99.90
56725;DHT22;42608;52.776;6.968;2022-07-03T15:52:33;21.40;99.90
56725;DHT22;42608;52.776;6.968;2022-07-03T15:55:08;21.30;99.90
56725;DHT22;42608;52.776;6.968;2022-07-03T15:57:47;21.30;99.90
56725;DHT22;42608;52.776;6.968;2022-07-03T16:00:14;21.50;99.90
56725;DHT22;42608;52.776;6.968;2022-07-03T16:02:56;21.50;99.90
56725;DHT22;42608;52.776;6.968;2022-07-03T16:05:27;21.60;99.90
56725;DHT22;42608;52.776;6.968;2022-07-03T16:07:54;21.60;99.90
56725;DHT22;42608;52.776;6.968;2022-07-03T16:10:20;21.70;99.90
56725;DHT22;42608;52.776;6.968;2022-07-03T16:12:46;21.70;99.90
56725;DHT22;42608;52.776;6.968;2022-07-03T16:15:15;21.60;99.90
56725;DHT22;42608;52.776;6.968;2022-07-03T16:17:40;21.50;99.90
56725;DHT22;42608;52.776;6.968;2022-07-03T16:20:07;21.50;99.90
56725;DHT22;42608;52.776;6.968;2022-07-03T16:22:34;21.30;99.90
56725;DHT22;42608;52.776;6.968;2022-07-03T16:25:00;21.20;99.90